Time;durP1;ratioP1;P1;durP2;ratioP2;P2;SDS_P1;SDS_P2;PMS_P1;PMS_P2;Temp;Humidity;BMP_temperature;BMP_pressure;BME280_temperature;BME280_humidity;BME280_pressure;Samples;Min_cycle;Max_cycle;Signal;HPM_P1;HPM_P2
2023/05/05 00:02:18;;;;;;;;;;;;;;;-140.72;100.00;52461.88;5089687;28;20051;-69
2023/05/05 00:04:43;;;;;;;;;;;;;;;-140.72;100.00;52484.19;5094563;28;19928;-69
2023/05/05 00:07:08;;;;;;;;;;;;;;;-140.72;100.00;52484.19;5094018;28;19961;-69
2023/05/05 00:09:33;;;;;;;;;;;;;;;-140.72;100.00;52463.91;5091665;28;19973;-68
2023/05/05 00:11:59;;;;;;;;;;;;;;;-140.72;100.00;52480.16;5089826;28;20010;-68
2023/05/05 00:14:24;;;;;;;;;;;;;;;-140.72;100.00;52459.84;5092033;28;20373;-69
2023/05/05 00:16:49;;;;;;;;;;;;;;;-140.72;100.00;52476.09;5090535;28;19920;-69
2023/05/05 00:19:15;;;;;;;;;;;;;;;-140.72;100.00;52472.03;5087354;28;19924;-69
2023/05/05 00:21:40;;;;;;;;;;;;;;;-140.72;100.00;52472.03;5094906;28;20400;-69
2023/05/05 00:24:05;;;;;;;;;;;;;;;-140.72;100.00;52455.78;5095811;28;19924;-69
2023/05/05 00:26:30;;;;;;;;;;;;;;;-140.72;100.00;52451.72;5095550;28;20314;-69
2023/05/05 00:28:56;;;;;;;;;;;;;;;-140.72;100.00;52488.25;5091524;28;20022;-69
2023/05/05 00:31:21;;;;;;;;;;;;;;;-140.72;100.00;52461.88;5093488;28;20732;-69
2023/05/05 00:33:46;;;;;;;;;;;;;;;-140.72;100.00;52500.44;5092440;28;20230;-69
2023/05/05 00:36:12;;;;;;;;;;;;;;;-140.72;100.00;52486.22;5084069;28;20070;-69
2023/05/05 00:38:37;;;;;;;;;;;;;;;-140.72;100.00;52480.16;5089827;28;19949;-70
2023/05/05 00:41:03;;;;;;;;;;;;;;;-140.72;100.00;52457.81;5091326;28;20003;-69
2023/05/05 00:43:28;;;;;;;;;;;;;;;-140.72;100.00;52459.84;5094697;28;19989;-69
2023/05/05 00:46:13;;;;;;;;;;;;;;;-140.72;100.00;52476.09;5090521;28;19920;-69
2023/05/05 00:48:39;;;;;;;;;;;;;;;-140.72;100.00;52465.94;5093606;28;19956;-69
2023/05/05 00:51:07;;;;;;;;;;;;;;;-140.72;100.00;52451.72;5088811;28;19963;-69
2023/05/05 00:53:33;;;;;;;;;;;;;;;-140.72;100.00;52518.69;5089551;28;19928;-69
2023/05/05 00:55:58;;;;;;;;;;;;;;;-140.72;100.00;52480.16;5093667;28;19920;-69
2023/05/05 00:58:23;;;;;;;;;;;;;;;-140.72;100.00;52484.19;5093508;28;20342;-69
2023/05/05 01:00:49;;;;;;;;;;;;;;;-140.72;100.00;52474.06;5091605;28;19940;-69
2023/05/05 01:03:14;;;;;;;;;;;;;;;-140.72;100.00;52492.31;5091948;28;19920;-69
2023/05/05 01:05:55;;;;;;;;;;;;;;;-140.72;100.00;52512.59;5094435;28;20288;-69
2023/05/05 01:08:40;;;;;;;;;;;;;;;-140.72;100.00;52445.66;5092976;28;20022;-69
2023/05/05 01:11:13;;;;;;;;;;;;;;;-140.72;100.00;52474.06;5090295;28;21340;-69
2023/05/05 01:13:57;;;;;;;;;;;;;;;-140.72;100.00;52506.53;5094040;28;19973;-69
2023/05/05 01:16:25;;;;;;;;;;;;;;;-140.72;100.00;52467.97;5097638;28;19928;-69
2023/05/05 01:19:00;;;;;;;;;;;;;;;-140.72;100.00;52496.38;5096028;28;20304;-69
2023/05/05 01:21:31;;;;;;;;;;;;;;;-140.72;100.00;52500.44;5089277;28;20964;-69
2023/05/05 01:23:59;;;;;;;;;;;;;;;-140.72;100.00;52492.31;5090641;28;20012;-69
2023/05/05 01:26:36;;;;;;;;;;;;;;;-140.72;100.00;52467.97;5096823;28;19920;-69
2023/05/05 01:29:02;;;;;;;;;;;;;;;-140.72;100.00;52480.16;5094422;28;20282;-69
2023/05/05 01:31:39;;;;;;;;;;;;;;;-140.72;100.00;52496.38;5089883;28;19931;-69
2023/05/05 01:34:08;;;;;;;;;;;;;;;-140.72;100.00;52476.09;5091039;28;19920;-69
2023/05/05 01:36:36;;;;;;;;;;;;;;;-140.72;100.00;52512.59;5095115;28;19944;-69
2023/05/05 01:39:03;;;;;;;;;;;;;;;-140.72;100.00;52467.97;5088102;28;20458;-69
2023/05/05 01:41:31;;;;;;;;;;;;;;;-140.72;100.00;52455.78;5094708;28;19931;-69
2023/05/05 01:43:58;;;;;;;;;;;;;;;-140.72;100.00;52510.59;5092054;28;19923;-69
2023/05/05 01:46:24;;;;;;;;;;;;;;;-140.72;100.00;52490.28;5095998;28;19920;-69
2023/05/05 01:48:50;;;;;;;;;;;;;;;-140.72;100.00;52453.75;5088903;28;20439;-70
2023/05/05 01:51:16;;;;;;;;;;;;;;;-140.72;100.00;52449.72;5088556;28;20401;-69
2023/05/05 01:53:42;;;;;;;;;;;;;;;-140.72;100.00;52476.09;5095510;28;20036;-69
2023/05/05 01:56:08;;;;;;;;;;;;;;;-140.72;100.00;52490.28;5093289;27;20022;-69
2023/05/05 01:58:34;;;;;;;;;;;;;;;-140.72;100.00;52480.16;5091075;28;19924;-69
2023/05/05 02:01:00;;;;;;;;;;;;;;;-140.72;100.00;52534.94;5095009;28;19920;-69
2023/05/05 02:03:26;;;;;;;;;;;;;;;-140.72;100.00;52498.41;5087301;28;20626;-69
2023/05/05 02:05:52;;;;;;;;;;;;;;;-140.72;100.00;52510.59;5088949;28;20015;-69
2023/05/05 02:08:18;;;;;;;;;;;;;;;-140.72;100.00;52530.88;5093817;28;19932;-69
2023/05/05 02:10:43;;;;;;;;;;;;;;;-140.72;100.00;52512.59;5094144;28;19927;-69
2023/05/05 02:13:11;;;;;;;;;;;;;;;-140.72;100.00;52532.91;5089633;28;19920;-69
2023/05/05 02:15:37;;;;;;;;;;;;;;;-140.72;100.00;52520.72;5096299;28;19985;-69
2023/05/05 02:18:04;;;;;;;;;;;;;;;-140.72;100.00;52522.75;5097753;28;20335;-69
2023/05/05 02:20:29;;;;;;;;;;;;;;;-140.72;100.00;52549.13;5093708;28;19951;-69
2023/05/05 02:22:55;;;;;;;;;;;;;;;-140.72;100.00;52573.50;5098501;28;19963;-69
2023/05/05 02:25:21;;;;;;;;;;;;;;;-140.72;100.00;52557.25;5099309;28;20023;-69
2023/05/05 02:27:46;;;;;;;;;;;;;;;-140.72;100.00;52524.78;5098518;28;19938;-69
2023/05/05 02:30:14;;;;;;;;;;;;;;;-140.72;100.00;52549.13;5097913;28;19920;-69
2023/05/05 02:32:43;;;;;;;;;;;;;;;-140.72;100.00;52547.09;5094708;28;20013;-69
2023/05/05 02:35:14;;;;;;;;;;;;;;;-140.72;100.00;52532.91;5098668;28;19920;-69
2023/05/05 02:37:47;;;;;;;;;;;;;;;-140.72;100.00;52557.25;5083960;28;19924;-69
2023/05/05 02:40:14;;;;;;;;;;;;;;;-140.72;100.00;52573.50;5082173;28;19916;-69
2023/05/05 02:42:40;;;;;;;;;;;;;;;-140.72;100.00;52528.84;5088968;28;19970;-69
2023/05/05 02:45:11;;;;;;;;;;;;;;;-140.72;100.00;52532.91;5095969;28;19970;-69
2023/05/05 02:47:36;;;;;;;;;;;;;;;-140.72;100.00;52516.66;5085920;28;19924;-69
2023/05/05 02:50:02;;;;;;;;;;;;;;;-140.72;100.00;52545.06;5106723;28;20304;-69
2023/05/05 02:52:28;;;;;;;;;;;;;;;-140.72;100.00;52553.19;5113238;28;19950;-69
2023/05/05 02:54:53;;;;;;;;;;;;;;;-140.72;100.00;52573.50;5093813;28;19928;-69
2023/05/05 02:57:19;;;;;;;;;;;;;;;-140.72;100.00;52545.06;5093626;28;19920;-69
2023/05/05 02:59:48;;;;;;;;;;;;;;;-140.72;100.00;52541.03;5099337;28;20366;-69
2023/05/05 03:02:18;;;;;;;;;;;;;;;-140.72;100.00;52534.94;5115197;28;20382;-70
2023/05/05 03:05:01;;;;;;;;;;;;;;;-140.72;100.00;52551.16;5094906;28;19931;-69
2023/05/05 03:07:32;;;;;;;;;;;;;;;-140.72;100.00;52553.19;5094416;28;19920;-69
2023/05/05 03:10:00;;;;;;;;;;;;;;;-140.72;100.00;52553.19;5093454;28;20019;-69
2023/05/05 03:12:27;;;;;;;;;;;;;;;-140.72;100.00;52536.97;5087440;28;19924;-69
2023/05/05 03:14:54;;;;;;;;;;;;;;;-140.72;100.00;52549.13;5111156;27;19927;-69
2023/05/05 03:17:21;;;;;;;;;;;;;;;-140.72;100.00;52494.34;5075818;28;19928;-69
2023/05/05 03:19:46;;;;;;;;;;;;;;;-140.72;100.00;52583.63;5086029;28;19920;-69
2023/05/05 03:22:12;;;;;;;;;;;;;;;-140.72;100.00;52549.13;5091554;28;19920;-69
2023/05/05 03:24:37;;;;;;;;;;;;;;;-140.72;100.00;52545.06;5103858;28;19931;-69
2023/05/05 03:27:02;;;;;;;;;;;;;;;-140.72;100.00;52575.50;5103954;28;19924;-69
2023/05/05 03:29:29;;;;;;;;;;;;;;;-140.72;100.00;52557.25;5090771;28;19920;-69
2023/05/05 03:31:54;;;;;;;;;;;;;;;-140.72;100.00;52549.13;5111969;28;19923;-69
2023/05/05 03:34:19;;;;;;;;;;;;;;;-140.72;100.00;52569.44;5097098;27;19924;-69
2023/05/05 03:36:44;;;;;;;;;;;;;;;-140.72;100.00;52563.34;5105773;28;19924;-69
2023/05/05 03:39:10;;;;;;;;;;;;;;;-140.72;100.00;52557.25;5103463;28;19927;-70
2023/05/05 03:41:35;;;;;;;;;;;;;;;-140.72;100.00;52545.06;5106883;28;20010;-70
2023/05/05 03:44:01;;;;;;;;;;;;;;;-140.72;100.00;52557.25;5087894;28;19926;-70
2023/05/05 03:46:26;;;;;;;;;;;;;;;-140.72;100.00;52524.78;5094274;28;19959;-70
2023/05/05 03:48:51;;;;;;;;;;;;;;;-140.72;100.00;52541.03;5083855;28;19924;-69
2023/05/05 03:51:16;;;;;;;;;;;;;;;-140.72;100.00;52541.03;5093452;28;19928;-69
2023/05/05 03:53:42;;;;;;;;;;;;;;;-140.72;100.00;52557.25;5101378;28;20019;-69
2023/05/05 03:56:07;;;;;;;;;;;;;;;-140.72;100.00;52589.72;5098736;28;20358;-70
2023/05/05 03:58:32;;;;;;;;;;;;;;;-140.72;100.00;52573.50;5107765;28;20378;-70
2023/05/05 04:00:57;;;;;;;;;;;;;;;-140.72;100.00;52575.50;5092733;28;20050;-70
2023/05/05 04:03:22;;;;;;;;;;;;;;;-140.72;100.00;52547.09;5103869;28;19956;-69
2023/05/05 04:05:48;;;;;;;;;;;;;;;-140.72;100.00;52547.09;5090321;28;19972;-70
2023/05/05 04:08:13;;;;;;;;;;;;;;;-140.72;100.00;52547.09;5103385;28;19924;-69
2023/05/05 04:10:38;;;;;;;;;;;;;;;-140.72;100.00;52543.03;5092211;28;19928;-70
2023/05/05 04:13:03;;;;;;;;;;;;;;;-140.72;100.00;52549.13;5092271;28;19935;-70
2023/05/05 04:15:29;;;;;;;;;;;;;;;-140.72;100.00;52543.03;5091787;28;19947;-70
2023/05/05 04:17:54;;;;;;;;;;;;;;;-140.72;100.00;52571.47;5090701;28;19919;-69
2023/05/05 04:20:20;;;;;;;;;;;;;;;-140.72;100.00;52571.47;5101282;28;20022;-70
2023/05/05 04:22:45;;;;;;;;;;;;;;;-140.72;100.00;52555.22;5099365;28;19920;-70
2023/05/05 04:25:10;;;;;;;;;;;;;;;-140.72;100.00;52575.50;5098630;28;20291;-70
2023/05/05 04:27:35;;;;;;;;;;;;;;;-140.72;100.00;52536.97;5097167;28;20382;-70
2023/05/05 04:30:01;;;;;;;;;;;;;;;-140.72;100.00;52593.78;5100928;28;19924;-70
2023/05/05 04:32:26;;;;;;;;;;;;;;;-140.72;100.00;52532.91;5089489;28;19924;-70
2023/05/05 04:34:51;;;;;;;;;;;;;;;-140.72;100.00;52581.59;5096388;28;19920;-69
2023/05/05 04:37:17;;;;;;;;;;;;;;;-140.72;100.00;52581.59;5093858;28;20497;-69
2023/05/05 04:39:42;;;;;;;;;;;;;;;-140.72;100.00;52557.25;5095701;28;20425;-69
2023/05/05 04:42:07;;;;;;;;;;;;;;;-140.72;100.00;52575.50;5089578;28;19958;-69
2023/05/05 04:44:33;;;;;;;;;;;;;;;-140.72;100.00;52561.31;5090866;28;20359;-69
2023/05/05 04:47:01;;;;;;;;;;;;;;;-140.72;100.00;52555.22;5098247;28;19920;-69
2023/05/05 04:49:30;;;;;;;;;;;;;;;-140.72;100.00;52559.28;5096499;28;20385;-70
2023/05/05 04:51:55;;;;;;;;;;;;;;;-140.72;100.00;52563.34;5102129;28;19920;-70
2023/05/05 04:54:20;;;;;;;;;;;;;;;-140.72;100.00;52595.81;5091875;28;19951;-70
2023/05/05 04:56:46;;;;;;;;;;;;;;;-140.72;100.00;52571.47;5105151;28;19928;-70
2023/05/05 04:59:12;;;;;;;;;;;;;;;-140.72;100.00;52522.75;5095107;28;19978;-70
2023/05/05 05:01:37;;;;;;;;;;;;;;;-140.72;100.00;52561.31;5086381;28;19928;-69
2023/05/05 05:04:03;;;;;;;;;;;;;;;-140.72;100.00;52622.19;5090303;28;20508;-69
2023/05/05 05:06:28;;;;;;;;;;;;;;;-140.72;100.00;52536.97;5100996;28;19920;-69
2023/05/05 05:08:54;;;;;;;;;;;;;;;-140.72;100.00;52553.19;5098444;28;19943;-70
2023/05/05 05:11:20;;;;;;;;;;;;;;;-140.72;100.00;52553.19;5098313;27;19951;-70
2023/05/05 05:13:46;;;;;;;;;;;;;;;-140.72;100.00;52543.03;5098035;28;20377;-70
2023/05/05 05:16:11;;;;;;;;;;;;;;;-140.72;100.00;52539.00;5098032;28;19967;-67
2023/05/05 05:18:36;;;;;;;;;;;;;;;-140.72;100.00;52565.38;5094002;28;19954;-69
2023/05/05 05:21:02;;;;;;;;;;;;;;;-140.72;100.00;52553.19;5088363;28;19922;-70
2023/05/05 05:23:27;;;;;;;;;;;;;;;-140.72;100.00;52553.19;5086120;28;19927;-70
2023/05/05 05:25:52;;;;;;;;;;;;;;;-140.72;100.00;52555.22;5095358;28;19970;-70
2023/05/05 05:28:18;;;;;;;;;;;;;;;-140.72;100.00;52545.06;5084859;28;19935;-70
2023/05/05 05:30:43;;;;;;;;;;;;;;;-140.72;100.00;52541.03;5103018;28;19932;-70
2023/05/05 05:33:08;;;;;;;;;;;;;;;-140.72;100.00;52569.44;5089644;28;20388;-70
2023/05/05 05:35:33;;;;;;;;;;;;;;;-140.72;100.00;52534.94;5092855;28;20007;-70
2023/05/05 05:37:58;;;;;;;;;;;;;;;-140.72;100.00;52553.19;5088618;28;19984;-70
2023/05/05 05:40:24;;;;;;;;;;;;;;;-140.72;100.00;52581.59;5093243;28;20378;-70
2023/05/05 05:42:49;;;;;;;;;;;;;;;-140.72;100.00;52518.69;5087777;28;19967;-70
2023/05/05 05:45:14;;;;;;;;;;;;;;;-140.72;100.00;52559.28;5099184;28;19920;-70
2023/05/05 05:47:39;;;;;;;;;;;;;;;-140.72;100.00;52543.03;5082271;28;19941;-70
2023/05/05 05:50:05;;;;;;;;;;;;;;;-140.72;100.00;52498.41;5101255;28;19924;-70
2023/05/05 05:52:31;;;;;;;;;;;;;;;-140.72;100.00;52522.75;5097388;28;19939;-75
2023/05/05 05:54:56;;;;;;;;;;;;;;;-140.72;100.00;52496.38;5099354;28;20274;-71
2023/05/05 05:57:23;;;;;;;;;;;;;;;-140.72;100.00;52524.78;5091186;28;19917;-70
2023/05/05 05:59:48;;;;;;;;;;;;;;;-140.72;100.00;52508.56;5092324;28;20382;-70
2023/05/05 06:02:15;;;;;;;;;;;;;;;-140.72;100.00;52500.44;5089984;28;19927;-70
2023/05/05 06:04:40;;;;;;;;;;;;;;;-140.72;100.00;52506.53;5108570;28;19923;-71
2023/05/05 06:07:05;;;;;;;;;;;;;;;-140.72;100.00;52490.28;5092911;28;19928;-71
2023/05/05 06:09:30;;;;;;;;;;;;;;;-140.72;100.00;52541.03;5096533;28;19920;-71
2023/05/05 06:11:56;;;;;;;;;;;;;;;-140.72;100.00;52512.59;5097678;28;19927;-70
2023/05/05 06:14:21;;;;;;;;;;;;;;;-140.72;100.00;52508.56;5098717;28;19931;-70
2023/05/05 06:16:46;;;;;;;;;;;;;;;-140.72;100.00;52465.94;5083992;28;20381;-70
2023/05/05 06:19:11;;;;;;;;;;;;;;;-140.72;100.00;52488.25;5098663;28;20369;-70
2023/05/05 06:21:36;;;;;;;;;;;;;;;-140.72;100.00;52467.97;5094944;28;19931;-70
2023/05/05 06:24:02;;;;;;;;;;;;;;;-140.72;100.00;52490.28;5096026;28;19950;-70
2023/05/05 06:26:27;;;;;;;;;;;;;;;-140.72;100.00;52488.25;5090856;28;19921;-70
2023/05/05 06:28:52;;;;;;;;;;;;;;;-140.72;100.00;52449.72;5092319;28;19924;-70
2023/05/05 06:31:18;;;;;;;;;;;;;;;-140.72;100.00;52445.66;5085647;28;19947;-70
2023/05/05 06:33:43;;;;;;;;;;;;;;;-140.72;100.00;52445.66;5096068;28;19965;-70
2023/05/05 06:36:08;;;;;;;;;;;;;;;-140.72;100.00;52425.34;5092796;28;19919;-70
2023/05/05 06:38:33;;;;;;;;;;;;;;;-140.72;100.00;52467.97;5088423;28;19989;-70
2023/05/05 06:40:58;;;;;;;;;;;;;;;-140.72;100.00;52482.16;5081527;28;20000;-70
2023/05/05 06:43:24;;;;;;;;;;;;;;;-140.72;100.00;52467.97;5098003;28;19949;-70
2023/05/05 06:45:49;;;;;;;;;;;;;;;-140.72;100.00;52451.72;5096588;28;20032;-70
2023/05/05 06:48:14;;;;;;;;;;;;;;;-140.72;100.00;52433.47;5076716;28;20366;-70
2023/05/05 06:50:39;;;;;;;;;;;;;;;-140.72;100.00;52427.38;5085531;28;19927;-70
2023/05/05 06:53:05;;;;;;;;;;;;;;;-140.72;100.00;52425.34;5091902;28;19928;-76
2023/05/05 06:55:30;;;;;;;;;;;;;;;-140.72;100.00;52447.69;5088685;28;20077;-72
2023/05/05 06:57:55;;;;;;;;;;;;;;;-140.72;100.00;52449.72;5098614;28;19964;-74
2023/05/05 07:00:21;;;;;;;;;;;;;;;-140.72;100.00;52409.13;5092319;28;20305;-74
2023/05/05 07:02:46;;;;;;;;;;;;;;;-140.72;100.00;52447.69;5100600;28;20281;-73
2023/05/05 07:05:11;;;;;;;;;;;;;;;-140.72;100.00;52427.38;5099914;28;19920;-73
2023/05/05 07:07:37;;;;;;;;;;;;;;;-140.72;100.00;52396.94;5095789;28;19993;-74
2023/05/05 07:10:03;;;;;;;;;;;;;;;-140.72;100.00;52403.03;5099526;28;19926;-72
2023/05/05 07:12:29;;;;;;;;;;;;;;;-140.72;100.00;52405.06;5096109;28;20347;-72
2023/05/05 07:14:55;;;;;;;;;;;;;;;-140.72;100.00;52413.19;5094498;28;19973;-71
2023/05/05 07:17:20;;;;;;;;;;;;;;;-140.72;100.00;52376.66;5088535;28;19920;-72
2023/05/05 07:19:47;;;;;;;;;;;;;;;-140.72;100.00;52394.91;5097003;28;19974;-72
2023/05/05 07:22:12;;;;;;;;;;;;;;;-140.72;100.00;52380.72;5089601;28;20011;-71
2023/05/05 07:24:37;;;;;;;;;;;;;;;-140.72;100.00;52388.84;5090466;28;20364;-72
2023/05/05 07:27:02;;;;;;;;;;;;;;;-140.72;100.00;52384.78;5090394;28;19920;-74
2023/05/05 07:29:28;;;;;;;;;;;;;;;-140.72;100.00;52370.56;5092461;28;20011;-75
2023/05/05 07:31:53;;;;;;;;;;;;;;;-140.72;91.79;52394.91;5099689;28;19965;-70
2023/05/05 07:34:18;;;;;;;;;;;;;;;-140.72;71.08;52360.44;5091082;28;19959;-70
2023/05/05 07:36:43;;;;;;;;;;;;;;;-140.72;43.76;52386.81;5098404;28;19928;-70
2023/05/05 07:39:09;;;;;;;;;;;;;;;-140.72;14.46;52358.41;5099869;28;19920;-72
2023/05/05 07:41:34;;;;;;;;;;;;;;;-140.72;4.96;52370.56;5095818;28;19921;-72
2023/05/05 07:44:00;;;;;;;;;;;;;;;-140.72;0.42;52350.28;5092451;28;19924;-70
2023/05/05 07:46:25;;;;;;;;;;;;;;;-140.72;0.00;52388.84;5095697;28;20116;-71
2023/05/05 07:48:50;;;;;;;;;;;;;;;-140.72;0.00;52380.72;5092957;28;19920;-69
2023/05/05 07:51:16;;;;;;;;;;;;;;;-140.72;0.00;52380.72;5086972;28;19919;-69
2023/05/05 07:53:41;;;;;;;;;;;;;;;-140.72;0.00;52366.50;5096517;28;19981;-69
2023/05/05 07:56:07;;;;;;;;;;;;;;;-140.72;0.00;52325.94;5093585;28;19927;-69
2023/05/05 07:58:32;;;;;;;;;;;;;;;-140.72;0.00;52378.69;5091068;28;19920;-71
2023/05/05 08:00:58;;;;;;;;;;;;;;;-140.72;0.00;52417.25;5088808;28;20003;-71
2023/05/05 08:03:23;;;;;;;;;;;;;;;-140.72;0.00;52390.84;5083844;28;19920;-71
2023/05/05 08:05:49;;;;;;;;;;;;;;;-140.72;0.00;52396.94;5093349;28;19916;-71
2023/05/05 08:08:14;;;;;;;;;;;;;;;-140.72;0.00;52421.28;5094484;28;19977;-71
2023/05/05 08:10:40;;;;;;;;;;;;;;;-140.72;0.00;52366.50;5083590;28;20289;-71
2023/05/05 08:13:05;;;;;;;;;;;;;;;-140.72;0.00;52407.09;5085693;28;19974;-73
2023/05/05 08:15:30;;;;;;;;;;;;;;;-140.72;0.00;52433.47;5085547;28;19915;-74
2023/05/05 08:17:56;;;;;;;;;;;;;;;-140.72;0.00;52423.31;5083608;28;20382;-73
2023/05/05 08:20:21;;;;;;;;;;;;;;;-140.72;0.00;52380.72;5085941;28;19973;-70
2023/05/05 08:22:46;;;;;;;;;;;;;;;-140.72;0.00;52370.56;5081345;28;19916;-72
2023/05/05 08:25:12;;;;;;;;;;;;;;;-140.72;0.00;52378.69;5088593;28;20280;-71
2023/05/05 08:27:38;;;;;;;;;;;;;;;-140.72;0.00;52407.09;5095527;28;19923;-71
2023/05/05 08:30:04;;;;;;;;;;;;;;;-140.72;0.00;52364.47;5087026;28;20068;-75
2023/05/05 08:32:30;;;;;;;;;;;;;;;-140.72;0.00;52370.56;5099455;28;19965;-73
2023/05/05 08:34:55;;;;;;;;;;;;;;;-140.72;0.00;52350.28;5090622;28;19919;-75
2023/05/05 08:37:21;;;;;;;;;;;;;;;-140.72;0.00;52378.69;5091196;27;19951;-73
2023/05/05 08:39:46;;;;;;;;;;;;;;;-140.72;0.00;52346.22;5087068;28;19916;-72
2023/05/05 08:42:11;;;;;;;;;;;;;;;-140.72;0.00;52344.19;5090538;28;19920;-72
2023/05/05 08:44:36;;;;;;;;;;;;;;;-140.72;0.00;52321.88;5096927;28;20007;-74
2023/05/05 08:47:02;;;;;;;;;;;;;;;-140.72;0.00;52330.00;5089154;28;20010;-78
2023/05/05 08:49:30;;;;;;;;;;;;;;;-140.72;0.00;52342.16;5098278;28;19916;-78
2023/05/05 08:51:57;;;;;;;;;;;;;;;-140.72;0.00;52382.75;5119742;27;19942;-79
2023/05/05 08:54:26;;;;;;;;;;;;;;;-140.72;0.00;52386.81;5089303;28;19971;-77
2023/05/05 08:56:51;;;;;;;;;;;;;;;-140.72;0.00;52390.84;5098399;28;19923;-78
2023/05/05 08:59:17;;;;;;;;;;;;;;;-140.72;0.00;52445.66;5091300;28;19919;-77
2023/05/05 09:01:43;;;;;;;;;;;;;;;-140.72;0.00;52451.72;5093578;28;19920;-77
2023/05/05 09:04:08;;;;;;;;;;;;;;;-140.72;2.58;52384.78;5102772;28;19924;-80
2023/05/05 09:06:34;;;;;;;;;;;;;;;-140.72;10.91;52384.78;5096348;28;19916;-75
2023/05/05 09:09:00;;;;;;;;;;;;;;;-140.72;35.16;52411.16;5090361;28;20332;-74
2023/05/05 09:11:26;;;;;;;;;;;;;;;-140.72;25.21;52419.28;5095923;28;19948;-75
2023/05/05 09:13:52;;;;;;;;;;;;;;;-140.72;18.77;52384.78;5079600;28;19928;-75
2023/05/05 09:16:17;;;;;;;;;;;;;;;-140.72;0.00;52362.44;5097163;28;19920;-78
2023/05/05 09:18:44;;;;;;;;;;;;;;;-140.72;0.00;52384.78;5090100;28;19927;-77
2023/05/05 09:21:23;;;;;;;;;;;;;;;-140.72;0.00;52394.91;5088696;28;19920;-76
2023/05/05 09:24:04;;;;;;;;;;;;;;;-140.72;0.00;52386.81;5097834;28;19924;-77
2023/05/05 09:26:31;;;;;;;;;;;;;;;-140.72;0.00;52388.84;5091653;28;19956;-76
2023/05/05 09:28:57;;;;;;;;;;;;;;;-140.72;0.00;52358.41;5118720;27;19920;-80
2023/05/05 09:31:22;;;;;;;;;;;;;;;-140.72;0.00;52390.84;5091850;28;19927;-77
2023/05/05 09:33:47;;;;;;;;;;;;;;;-140.72;0.00;52390.84;5088538;28;19920;-78
2023/05/05 09:36:12;;;;;;;;;;;;;;;-140.72;0.00;52370.56;5090179;28;19964;-77
2023/05/05 09:38:38;;;;;;;;;;;;;;;-140.72;0.00;52403.03;5094211;28;19916;-78
2023/05/05 09:41:05;;;;;;;;;;;;;;;-140.72;0.00;52445.66;5080752;28;19955;-77
2023/05/05 09:43:47;;;;;;;;;;;;;;;-140.72;0.00;52427.38;5088473;28;20460;-77
2023/05/05 09:46:13;;;;;;;;;;;;;;;-140.72;0.00;52427.38;5095079;28;19923;-78
2023/05/05 09:48:38;;;;;;;;;;;;;;;-140.72;0.00;52421.28;5090715;28;20293;-79
2023/05/05 09:51:03;;;;;;;;;;;;;;;-140.72;0.00;52433.47;5091380;28;20290;-77
2023/05/05 09:53:37;;;;;;;;;;;;;;;-140.72;0.00;52455.78;5104353;28;20372;-73
2023/05/05 09:56:02;;;;;;;;;;;;;;;-140.72;25.12;52419.28;5090945;28;20371;-73
2023/05/05 09:58:28;;;;;;;;;;;;;;;-140.72;100.00;52484.19;5085312;28;19924;-74
2023/05/05 10:00:57;;;;;;;;;;;;;;;-140.72;100.00;52457.81;5087877;28;20294;-73
2023/05/05 10:03:22;;;;;;;;;;;;;;;-140.72;100.00;52472.03;5084217;28;20003;-74
2023/05/05 10:06:06;;;;;;;;;;;;;;;-140.72;100.00;52496.38;5090482;28;20413;-76
2023/05/05 10:08:33;;;;;;;;;;;;;;;-140.72;100.00;52480.16;5095797;28;19917;-72
2023/05/05 10:10:59;;;;;;;;;;;;;;;-140.72;100.00;52506.53;5090189;28;20394;-73
2023/05/05 10:13:24;;;;;;;;;;;;;;;-140.72;100.00;52500.44;5081986;28;20378;-73
2023/05/05 10:15:51;;;;;;;;;;;;;;;-140.72;100.00;52486.22;5093294;28;19973;-73
2023/05/05 10:18:20;;;;;;;;;;;;;;;-140.72;100.00;52488.25;5086978;28;19974;-72
2023/05/05 10:20:47;;;;;;;;;;;;;;;-140.72;100.00;52510.59;5079797;28;19928;-73
2023/05/05 10:23:14;;;;;;;;;;;;;;;-140.72;100.00;52488.25;5093193;28;19928;-71
2023/05/05 10:25:44;;;;;;;;;;;;;;;-140.72;100.00;52482.16;5089963;28;19920;-73
2023/05/05 10:28:10;;;;;;;;;;;;;;;-140.72;100.00;52486.22;5083932;28;19965;-73
2023/05/05 10:30:40;;;;;;;;;;;;;;;-140.72;100.00;52465.94;5086716;28;19924;-72
2023/05/05 10:33:14;;;;;;;;;;;;;;;-140.72;100.00;52496.38;5091366;28;20390;-74
2023/05/05 10:35:43;;;;;;;;;;;;;;;-140.72;100.00;52482.16;5097934;28;20030;-73
2023/05/05 10:38:11;;;;;;;;;;;;;;;-140.72;100.00;52500.44;5086990;28;19956;-72
2023/05/05 10:40:37;;;;;;;;;;;;;;;-140.72;100.00;52524.78;5086940;28;19924;-72
2023/05/05 10:43:02;;;;;;;;;;;;;;;-140.72;100.00;52524.78;5096396;28;19920;-72
2023/05/05 10:45:28;;;;;;;;;;;;;;;-140.72;100.00;52524.78;5101361;28;19916;-73
2023/05/05 10:47:55;;;;;;;;;;;;;;;-140.72;100.00;52528.84;5085506;28;19926;-74
2023/05/05 10:50:36;;;;;;;;;;;;;;;-140.72;100.00;52545.06;5106014;28;19919;-72
2023/05/05 10:53:20;;;;;;;;;;;;;;;-140.72;100.00;52547.09;5095913;28;19919;-76
2023/05/05 10:55:56;;;;;;;;;;;;;;;-140.72;100.00;52567.41;5107226;28;19965;-73
2023/05/05 10:58:50;;;;;;;;;;;;;;;-140.72;100.00;52504.50;5115437;28;19923;-73
2023/05/05 11:01:27;;;;;;;;;;;;;;;-140.72;100.00;52512.59;5071912;28;19931;-74
2023/05/05 11:04:12;;;;;;;;;;;;;;;-140.72;100.00;52524.78;5095823;28;19935;-74
2023/05/05 11:06:38;;;;;;;;;;;;;;;-140.72;100.00;52530.88;5101172;28;20485;-76
2023/05/05 11:09:24;;;;;;;;;;;;;;;-140.72;100.00;52534.94;5103147;28;19920;-73
2023/05/05 11:12:05;;;;;;;;;;;;;;;-140.72;100.00;52508.56;5100540;28;19962;-73
2023/05/05 11:14:30;;;;;;;;;;;;;;;-140.72;100.00;52528.84;5085757;28;20399;-73
2023/05/05 11:16:55;;;;;;;;;;;;;;;-140.72;100.00;52498.41;5083204;28;19951;-74
2023/05/05 11:19:41;;;;;;;;;;;;;;;-140.72;100.00;52561.31;5088726;28;20296;-76
2023/05/05 11:22:06;;;;;;;;;;;;;;;-140.72;100.00;52561.31;5086596;28;20400;-72
2023/05/05 11:24:32;;;;;;;;;;;;;;;-140.72;100.00;52524.78;5085546;28;19924;-72
2023/05/05 11:26:57;;;;;;;;;;;;;;;-140.72;100.00;52553.19;5091390;28;20023;-75
2023/05/05 11:29:23;;;;;;;;;;;;;;;-140.72;100.00;52545.06;5096432;28;20382;-75
2023/05/05 11:32:08;;;;;;;;;;;;;;;-140.72;100.00;52551.16;5080928;28;19960;-75
2023/05/05 11:34:33;;;;;;;;;;;;;;;-140.72;100.00;52567.41;5093337;28;19916;-73
2023/05/05 11:37:02;;;;;;;;;;;;;;;-140.72;100.00;52585.66;5087533;28;19916;-73
2023/05/05 11:39:45;;;;;;;;;;;;;;;-140.72;100.00;52569.44;5088167;28;20383;-72
2023/05/05 11:42:16;;;;;;;;;;;;;;;-140.72;100.00;52559.28;5091508;28;19923;-72
2023/05/05 11:44:42;;;;;;;;;;;;;;;-140.72;100.00;52555.22;5124612;27;19916;-72
2023/05/05 11:47:07;;;;;;;;;;;;;;;-140.72;100.00;52567.41;5089933;28;19981;-74
2023/05/05 11:49:32;;;;;;;;;;;;;;;-140.72;100.00;52567.41;5090139;28;19962;-73
2023/05/05 11:51:58;;;;;;;;;;;;;;;-140.72;100.00;52549.13;5093239;28;19916;-84
2023/05/05 11:54:24;;;;;;;;;;;;;;;-140.72;100.00;52585.66;5085021;28;20011;-70
2023/05/05 11:56:50;;;;;;;;;;;;;;;-140.72;100.00;52587.69;5080486;28;19967;-71
2023/05/05 11:59:15;;;;;;;;;;;;;;;-140.72;100.00;52607.97;5091484;28;19920;-74
2023/05/05 12:01:41;;;;;;;;;;;;;;;-140.72;100.00;52561.31;5084377;28;19990;-73
2023/05/05 12:04:07;;;;;;;;;;;;;;;-140.72;100.00;52593.78;5098184;28;20309;-74
2023/05/05 12:06:32;;;;;;;;;;;;;;;-140.72;100.00;52595.81;5083078;28;19951;-73
2023/05/05 12:08:59;;;;;;;;;;;;;;;-140.72;100.00;52595.81;5086413;28;20333;-75
2023/05/05 12:11:24;;;;;;;;;;;;;;;-140.72;100.00;52583.63;5080883;28;20105;-74
2023/05/05 12:13:49;;;;;;;;;;;;;;;-140.72;100.00;52561.31;5085180;28;19989;-74
2023/05/05 12:16:15;;;;;;;;;;;;;;;-140.72;100.00;52610.00;5083719;28;20452;-72
2023/05/05 12:18:40;;;;;;;;;;;;;;;-140.72;100.00;52595.81;5093581;28;19930;-72
2023/05/05 12:21:16;;;;;;;;;;;;;;;-140.72;100.00;52636.38;5087155;28;19929;-73